Aviation Digital Data Service (ADDS)

Output produced by TAFs form (1013 UTC 22 November 2014)
found at http://aviationweather.gov/adds/tafs/
 
KAEG 220525Z 2206/2306 32005KT P6SM FEW200 
     FM221900 28010KT P6SM FEW200